sensor_id;sensor_type;location;lat;lon;timestamp;pressure;altitude;pressure_sealevel;temperature;humidity
21357;BME280;10836;53.068;18.234;2023-07-24T00:01:14;100143.00;;;15.34;94.33
21357;BME280;10836;53.068;18.234;2023-07-24T00:03:41;100145.63;;;15.39;94.14
21357;BME280;10836;53.068;18.234;2023-07-24T00:06:08;100150.13;;;15.35;93.10
21357;BME280;10836;53.068;18.234;2023-07-24T00:08:35;100145.91;;;15.28;92.58
21357;BME280;10836;53.068;18.234;2023-07-24T00:11:02;100151.22;;;15.25;92.01
21357;BME280;10836;53.068;18.234;2023-07-24T00:13:31;100148.16;;;15.26;92.60
21357;BME280;10836;53.068;18.234;2023-07-24T00:15:58;100150.75;;;15.31;91.70
21357;BME280;10836;53.068;18.234;2023-07-24T00:18:24;100149.28;;;15.25;92.61
21357;BME280;10836;53.068;18.234;2023-07-24T00:20:51;100151.69;;;15.18;92.56
21357;BME280;10836;53.068;18.234;2023-07-24T00:23:18;100151.97;;;15.08;92.52
21357;BME280;10836;53.068;18.234;2023-07-24T00:25:45;100162.16;;;15.08;92.72
21357;BME280;10836;53.068;18.234;2023-07-24T00:28:12;100159.09;;;15.09;92.37
21357;BME280;10836;53.068;18.234;2023-07-24T00:30:39;100159.38;;;14.99;93.75
21357;BME280;10836;53.068;18.234;2023-07-24T00:33:06;100158.50;;;14.90;94.68
21357;BME280;10836;53.068;18.234;2023-07-24T00:35:33;100162.53;;;14.84;95.32
21357;BME280;10836;53.068;18.234;2023-07-24T00:38:01;100155.28;;;14.88;93.84
21357;BME280;10836;53.068;18.234;2023-07-24T00:40:28;100146.53;;;14.86;94.44
21357;BME280;10836;53.068;18.234;2023-07-24T00:42:54;100146.53;;;14.86;94.53
21357;BME280;10836;53.068;18.234;2023-07-24T00:45:22;100154.28;;;14.84;94.40
21357;BME280;10836;53.068;18.234;2023-07-24T00:47:50;100156.72;;;14.85;93.78
21357;BME280;10836;53.068;18.234;2023-07-24T00:50:18;100152.78;;;14.78;94.17
21357;BME280;10836;53.068;18.234;2023-07-24T00:52:46;100149.19;;;14.69;95.23
21357;BME280;10836;53.068;18.234;2023-07-24T00:55:13;100157.28;;;14.74;94.44
21357;BME280;10836;53.068;18.234;2023-07-24T00:57:43;100156.47;;;14.73;94.49
21357;BME280;10836;53.068;18.234;2023-07-24T01:00:11;100164.25;;;14.71;94.66
21357;BME280;10836;53.068;18.234;2023-07-24T01:02:38;100158.44;;;14.73;94.72
21357;BME280;10836;53.068;18.234;2023-07-24T01:05:07;100158.28;;;14.78;93.33
21357;BME280;10836;53.068;18.234;2023-07-24T01:07:35;100156.22;;;14.83;93.51
21357;BME280;10836;53.068;18.234;2023-07-24T01:10:03;100160.28;;;14.86;92.84
21357;BME280;10836;53.068;18.234;2023-07-24T01:12:39;100157.38;;;14.91;92.78
21357;BME280;10836;53.068;18.234;2023-07-24T01:15:17;100157.03;;;14.84;92.51
21357;BME280;10836;53.068;18.234;2023-07-24T01:17:48;100163.16;;;14.81;93.27
21357;BME280;10836;53.068;18.234;2023-07-24T01:20:17;100165.22;;;14.75;93.31
21357;BME280;10836;53.068;18.234;2023-07-24T01:25:53;100152.31;;;15.07;89.11
21357;BME280;10836;53.068;18.234;2023-07-24T01:28:21;100164.47;;;15.14;89.88
21357;BME280;10836;53.068;18.234;2023-07-24T01:30:48;100141.97;;;15.12;88.97
21357;BME280;10836;53.068;18.234;2023-07-24T01:33:15;100149.72;;;15.10;90.22
21357;BME280;10836;53.068;18.234;2023-07-24T01:35:48;100148.09;;;15.09;89.80
21357;BME280;10836;53.068;18.234;2023-07-24T01:38:17;100152.44;;;15.02;90.35
21357;BME280;10836;53.068;18.234;2023-07-24T01:40:44;100139.28;;;14.90;91.39
21357;BME280;10836;53.068;18.234;2023-07-24T01:43:12;100139.44;;;14.93;91.77
21357;BME280;10836;53.068;18.234;2023-07-24T01:45:39;100146.84;;;14.84;91.62
21357;BME280;10836;53.068;18.234;2023-07-24T01:48:06;100138.91;;;14.83;91.48
21357;BME280;10836;53.068;18.234;2023-07-24T01:50:33;100143.22;;;14.75;92.65
21357;BME280;10836;53.068;18.234;2023-07-24T01:53:00;100137.22;;;14.64;92.83
21357;BME280;10836;53.068;18.234;2023-07-24T01:55:27;100133.84;;;14.45;95.29
21357;BME280;10836;53.068;18.234;2023-07-24T01:57:54;100128.84;;;14.47;95.09
21357;BME280;10836;53.068;18.234;2023-07-24T02:00:21;100121.22;;;14.44;95.27
21357;BME280;10836;53.068;18.234;2023-07-24T02:02:56;100124.88;;;14.40;95.99
21357;BME280;10836;53.068;18.234;2023-07-24T02:05:24;100120.28;;;14.26;96.75
21357;BME280;10836;53.068;18.234;2023-07-24T02:07:50;100125.22;;;14.16;97.71
21357;BME280;10836;53.068;18.234;2023-07-24T02:10:18;100134.88;;;14.13;97.93
21357;BME280;10836;53.068;18.234;2023-07-24T02:12:45;100128.47;;;14.18;97.22
21357;BME280;10836;53.068;18.234;2023-07-24T02:15:12;100131.94;;;14.32;95.71
21357;BME280;10836;53.068;18.234;2023-07-24T02:17:39;100139.53;;;14.35;96.00
21357;BME280;10836;53.068;18.234;2023-07-24T02:20:07;100135.59;;;14.41;95.17
21357;BME280;10836;53.068;18.234;2023-07-24T02:22:34;100139.72;;;14.52;94.18
21357;BME280;10836;53.068;18.234;2023-07-24T02:25:05;100134.84;;;14.49;94.18
21357;BME280;10836;53.068;18.234;2023-07-24T02:27:32;100136.84;;;14.57;94.11
21357;BME280;10836;53.068;18.234;2023-07-24T02:30:02;100142.19;;;14.62;93.37
21357;BME280;10836;53.068;18.234;2023-07-24T02:32:29;100144.13;;;14.62;93.52
21357;BME280;10836;53.068;18.234;2023-07-24T02:34:56;100133.69;;;14.73;93.44
21357;BME280;10836;53.068;18.234;2023-07-24T02:37:23;100137.91;;;14.79;92.78
21357;BME280;10836;53.068;18.234;2023-07-24T02:39:51;100138.03;;;14.74;93.41
21357;BME280;10836;53.068;18.234;2023-07-24T02:42:19;100131.88;;;14.99;91.21
21357;BME280;10836;53.068;18.234;2023-07-24T02:44:46;100134.50;;;15.04;90.57
21357;BME280;10836;53.068;18.234;2023-07-24T02:47:13;100129.63;;;15.01;90.96
21357;BME280;10836;53.068;18.234;2023-07-24T02:49:40;100131.31;;;15.19;89.93
21357;BME280;10836;53.068;18.234;2023-07-24T02:52:07;100137.63;;;15.20;89.91
21357;BME280;10836;53.068;18.234;2023-07-24T02:54:34;100128.56;;;15.19;89.78
21357;BME280;10836;53.068;18.234;2023-07-24T02:57:01;100128.41;;;15.24;89.96
21357;BME280;10836;53.068;18.234;2023-07-24T02:59:29;100136.06;;;15.36;89.74
21357;BME280;10836;53.068;18.234;2023-07-24T03:01:56;100132.84;;;15.43;88.98
21357;BME280;10836;53.068;18.234;2023-07-24T03:04:24;100129.81;;;15.53;88.26
21357;BME280;10836;53.068;18.234;2023-07-24T03:06:50;100126.25;;;15.61;88.24
21357;BME280;10836;53.068;18.234;2023-07-24T03:09:18;100122.06;;;15.72;87.40
21357;BME280;10836;53.068;18.234;2023-07-24T03:11:44;100122.41;;;15.79;88.00
21357;BME280;10836;53.068;18.234;2023-07-24T03:14:12;100122.75;;;15.86;86.76
21357;BME280;10836;53.068;18.234;2023-07-24T03:16:38;100124.06;;;15.98;86.16
21357;BME280;10836;53.068;18.234;2023-07-24T03:19:05;100113.34;;;16.05;85.63
21357;BME280;10836;53.068;18.234;2023-07-24T03:21:32;100126.31;;;15.95;86.98
21357;BME280;10836;53.068;18.234;2023-07-24T03:23:59;100111.75;;;15.95;86.24
21357;BME280;10836;53.068;18.234;2023-07-24T03:26:26;100118.56;;;15.98;86.81
21357;BME280;10836;53.068;18.234;2023-07-24T03:28:53;100123.25;;;15.97;86.57
21357;BME280;10836;53.068;18.234;2023-07-24T03:31:20;100130.34;;;16.07;87.38
21357;BME280;10836;53.068;18.234;2023-07-24T03:33:47;100137.16;;;16.09;87.39
21357;BME280;10836;53.068;18.234;2023-07-24T03:36:14;100139.44;;;16.24;86.56
21357;BME280;10836;53.068;18.234;2023-07-24T03:38:41;100133.75;;;16.21;86.42
21357;BME280;10836;53.068;18.234;2023-07-24T03:41:08;100124.19;;;16.18;86.84
21357;BME280;10836;53.068;18.234;2023-07-24T03:43:35;100128.09;;;16.26;86.17
21357;BME280;10836;53.068;18.234;2023-07-24T03:46:03;100122.75;;;16.38;86.60
21357;BME280;10836;53.068;18.234;2023-07-24T03:48:30;100127.59;;;16.24;87.39
21357;BME280;10836;53.068;18.234;2023-07-24T03:50:58;100123.06;;;16.37;86.50
21357;BME280;10836;53.068;18.234;2023-07-24T03:53:27;100125.78;;;16.54;85.69
21357;BME280;10836;53.068;18.234;2023-07-24T03:55:54;100118.97;;;16.51;86.97
21357;BME280;10836;53.068;18.234;2023-07-24T03:58:21;100121.06;;;16.54;87.15
21357;BME280;10836;53.068;18.234;2023-07-24T04:00:48;100123.66;;;16.59;87.05
21357;BME280;10836;53.068;18.234;2023-07-24T04:03:16;100130.47;;;16.62;87.10
21357;BME280;10836;53.068;18.234;2023-07-24T04:05:43;100135.50;;;16.77;86.12
21357;BME280;10836;53.068;18.234;2023-07-24T04:08:10;100135.66;;;16.81;85.48
21357;BME280;10836;53.068;18.234;2023-07-24T04:10:37;100125.94;;;16.75;86.00
21357;BME280;10836;53.068;18.234;2023-07-24T04:13:04;100130.13;;;16.63;87.18
21357;BME280;10836;53.068;18.234;2023-07-24T04:15:31;100127.41;;;16.72;86.40
21357;BME280;10836;53.068;18.234;2023-07-24T04:17:59;100127.19;;;16.86;86.10
21357;BME280;10836;53.068;18.234;2023-07-24T04:20:26;100133.84;;;16.85;86.58
21357;BME280;10836;53.068;18.234;2023-07-24T04:22:53;100125.19;;;16.95;85.92
21357;BME280;10836;53.068;18.234;2023-07-24T04:25:20;100129.75;;;16.91;86.35
21357;BME280;10836;53.068;18.234;2023-07-24T04:27:48;100133.81;;;16.93;86.25
21357;BME280;10836;53.068;18.234;2023-07-24T04:30:15;100127.00;;;16.91;86.61
21357;BME280;10836;53.068;18.234;2023-07-24T04:32:42;100131.03;;;17.02;85.91
21357;BME280;10836;53.068;18.234;2023-07-24T04:35:09;100133.16;;;16.96;86.50
21357;BME280;10836;53.068;18.234;2023-07-24T04:37:36;100130.34;;;17.05;86.23
21357;BME280;10836;53.068;18.234;2023-07-24T04:40:03;100128.56;;;17.09;86.54
21357;BME280;10836;53.068;18.234;2023-07-24T04:42:31;100134.56;;;17.11;86.04
21357;BME280;10836;53.068;18.234;2023-07-24T04:44:57;100133.41;;;17.12;86.02
21357;BME280;10836;53.068;18.234;2023-07-24T04:47:24;100133.72;;;17.19;85.57
21357;BME280;10836;53.068;18.234;2023-07-24T04:49:51;100132.25;;;17.22;85.75
21357;BME280;10836;53.068;18.234;2023-07-24T04:52:18;100137.72;;;17.31;85.68
21357;BME280;10836;53.068;18.234;2023-07-24T04:54:45;100138.66;;;17.35;85.42
21357;BME280;10836;53.068;18.234;2023-07-24T04:57:12;100133.94;;;17.35;85.44
21357;BME280;10836;53.068;18.234;2023-07-24T04:59:39;100136.38;;;17.37;86.01
21357;BME280;10836;53.068;18.234;2023-07-24T05:02:06;100130.84;;;17.37;86.07
21357;BME280;10836;53.068;18.234;2023-07-24T05:04:33;100135.63;;;17.57;85.19
21357;BME280;10836;53.068;18.234;2023-07-24T05:07:00;100143.09;;;17.65;85.07
21357;BME280;10836;53.068;18.234;2023-07-24T05:09:27;100140.78;;;17.67;85.36
21357;BME280;10836;53.068;18.234;2023-07-24T05:11:54;100150.84;;;17.63;86.56
21357;BME280;10836;53.068;18.234;2023-07-24T05:14:21;100143.72;;;17.62;87.11
21357;BME280;10836;53.068;18.234;2023-07-24T05:16:48;100149.72;;;17.64;87.61
21357;BME280;10836;53.068;18.234;2023-07-24T05:19:15;100146.97;;;17.64;87.98
21357;BME280;10836;53.068;18.234;2023-07-24T05:21:42;100143.28;;;17.51;88.44
21357;BME280;10836;53.068;18.234;2023-07-24T05:24:09;100152.38;;;17.52;88.98
21357;BME280;10836;53.068;18.234;2023-07-24T05:26:36;100153.22;;;17.44;90.10
21357;BME280;10836;53.068;18.234;2023-07-24T05:29:03;100142.69;;;17.37;91.26
21357;BME280;10836;53.068;18.234;2023-07-24T05:31:30;100144.31;;;17.38;91.57
21357;BME280;10836;53.068;18.234;2023-07-24T05:33:57;100148.78;;;17.31;92.59
21357;BME280;10836;53.068;18.234;2023-07-24T05:36:24;100150.03;;;17.33;95.17
21357;BME280;10836;53.068;18.234;2023-07-24T05:38:52;100152.22;;;17.19;99.14
21357;BME280;10836;53.068;18.234;2023-07-24T05:41:19;100158.44;;;17.07;100.00
21357;BME280;10836;53.068;18.234;2023-07-24T05:43:46;100143.78;;;16.69;100.00
21357;BME280;10836;53.068;18.234;2023-07-24T05:46:13;100149.47;;;16.29;100.00
21357;BME280;10836;53.068;18.234;2023-07-24T05:48:41;100135.88;;;16.07;100.00
21357;BME280;10836;53.068;18.234;2023-07-24T05:51:08;100131.34;;;16.02;100.00
21357;BME280;10836;53.068;18.234;2023-07-24T05:53:35;100134.56;;;15.78;100.00
21357;BME280;10836;53.068;18.234;2023-07-24T05:56:02;100130.34;;;15.81;100.00
21357;BME280;10836;53.068;18.234;2023-07-24T05:58:29;100133.28;;;15.93;100.00
21357;BME280;10836;53.068;18.234;2023-07-24T06:00:57;100142.19;;;15.99;100.00
21357;BME280;10836;53.068;18.234;2023-07-24T06:03:24;100152.88;;;15.91;100.00
21357;BME280;10836;53.068;18.234;2023-07-24T06:05:52;100153.88;;;15.95;100.00
21357;BME280;10836;53.068;18.234;2023-07-24T06:08:20;100160.19;;;15.96;100.00
21357;BME280;10836;53.068;18.234;2023-07-24T06:10:49;100159.22;;;16.01;100.00
21357;BME280;10836;53.068;18.234;2023-07-24T06:13:17;100153.53;;;16.06;100.00
21357;BME280;10836;53.068;18.234;2023-07-24T06:15:44;100166.81;;;16.21;100.00
21357;BME280;10836;53.068;18.234;2023-07-24T06:18:11;100156.13;;;16.11;100.00
21357;BME280;10836;53.068;18.234;2023-07-24T06:20:38;100160.03;;;16.27;100.00
21357;BME280;10836;53.068;18.234;2023-07-24T06:23:05;100156.13;;;16.28;100.00
21357;BME280;10836;53.068;18.234;2023-07-24T06:25:32;100161.81;;;16.23;100.00
21357;BME280;10836;53.068;18.234;2023-07-24T06:27:59;100173.16;;;16.30;100.00
21357;BME280;10836;53.068;18.234;2023-07-24T06:30:26;100165.22;;;16.37;100.00
21357;BME280;10836;53.068;18.234;2023-07-24T06:32:53;100174.78;;;16.40;100.00
21357;BME280;10836;53.068;18.234;2023-07-24T06:35:20;100168.09;;;16.49;100.00
21357;BME280;10836;53.068;18.234;2023-07-24T06:37:47;100172.97;;;16.70;100.00
21357;BME280;10836;53.068;18.234;2023-07-24T06:40:14;100166.81;;;16.73;100.00
21357;BME280;10836;53.068;18.234;2023-07-24T06:42:41;100158.69;;;16.76;100.00
21357;BME280;10836;53.068;18.234;2023-07-24T06:45:08;100157.06;;;16.75;100.00
21357;BME280;10836;53.068;18.234;2023-07-24T06:47:35;100142.16;;;16.68;100.00
21357;BME280;10836;53.068;18.234;2023-07-24T06:50:03;100136.31;;;16.78;100.00
21357;BME280;10836;53.068;18.234;2023-07-24T06:52:32;100128.22;;;16.73;100.00
21357;BME280;10836;53.068;18.234;2023-07-24T06:54:59;100127.19;;;16.86;100.00
21357;BME280;10836;53.068;18.234;2023-07-24T06:57:26;100126.09;;;17.16;100.00
21357;BME280;10836;53.068;18.234;2023-07-24T06:59:53;100121.91;;;17.40;100.00
21357;BME280;10836;53.068;18.234;2023-07-24T07:02:21;100115.69;;;17.51;100.00
21357;BME280;10836;53.068;18.234;2023-07-24T07:04:48;100116.34;;;17.48;100.00
21357;BME280;10836;53.068;18.234;2023-07-24T07:07:15;100113.47;;;17.95;100.00
21357;BME280;10836;53.068;18.234;2023-07-24T07:09:42;100109.81;;;17.82;100.00
21357;BME280;10836;53.068;18.234;2023-07-24T07:12:09;100119.00;;;17.74;100.00
21357;BME280;10836;53.068;18.234;2023-07-24T07:14:36;100104.44;;;18.07;100.00
21357;BME280;10836;53.068;18.234;2023-07-24T07:17:03;100107.66;;;17.88;100.00
21357;BME280;10836;53.068;18.234;2023-07-24T07:19:30;100110.34;;;17.97;100.00
21357;BME280;10836;53.068;18.234;2023-07-24T07:21:57;100105.50;;;17.93;100.00
21357;BME280;10836;53.068;18.234;2023-07-24T07:24:24;100090.22;;;17.75;100.00
21357;BME280;10836;53.068;18.234;2023-07-24T07:26:51;100086.78;;;17.78;100.00
21357;BME280;10836;53.068;18.234;2023-07-24T07:29:18;100084.75;;;18.08;100.00
21357;BME280;10836;53.068;18.234;2023-07-24T07:31:45;100094.34;;;18.23;100.00
21357;BME280;10836;53.068;18.234;2023-07-24T07:34:12;100077.88;;;18.14;100.00
21357;BME280;10836;53.068;18.234;2023-07-24T07:36:39;100077.81;;;18.35;100.00
21357;BME280;10836;53.068;18.234;2023-07-24T07:39:06;100080.84;;;18.42;100.00
21357;BME280;10836;53.068;18.234;2023-07-24T07:41:33;100076.44;;;18.74;100.00
21357;BME280;10836;53.068;18.234;2023-07-24T07:44:00;100077.75;;;19.01;100.00
21357;BME280;10836;53.068;18.234;2023-07-24T07:46:27;100080.25;;;18.82;100.00
21357;BME280;10836;53.068;18.234;2023-07-24T07:48:54;100083.06;;;18.94;100.00
21357;BME280;10836;53.068;18.234;2023-07-24T07:51:21;100071.75;;;18.87;100.00
21357;BME280;10836;53.068;18.234;2023-07-24T07:53:49;100071.75;;;18.99;100.00
21357;BME280;10836;53.068;18.234;2023-07-24T07:56:16;100059.63;;;19.40;100.00
21357;BME280;10836;53.068;18.234;2023-07-24T07:58:43;100068.28;;;19.51;100.00
21357;BME280;10836;53.068;18.234;2023-07-24T08:01:10;100070.66;;;20.05;100.00
21357;BME280;10836;53.068;18.234;2023-07-24T08:03:37;100058.88;;;19.80;100.00
21357;BME280;10836;53.068;18.234;2023-07-24T08:06:04;100052.41;;;19.88;100.00
21357;BME280;10836;53.068;18.234;2023-07-24T08:08:31;100049.91;;;20.26;100.00
21357;BME280;10836;53.068;18.234;2023-07-24T08:10:58;100048.13;;;19.90;100.00
21357;BME280;10836;53.068;18.234;2023-07-24T08:13:25;100050.06;;;20.18;100.00
21357;BME280;10836;53.068;18.234;2023-07-24T08:15:52;100040.22;;;20.48;100.00
21357;BME280;10836;53.068;18.234;2023-07-24T08:18:19;100033.69;;;20.88;100.00
21357;BME280;10836;53.068;18.234;2023-07-24T08:20:46;100029.56;;;21.13;100.00
21357;BME280;10836;53.068;18.234;2023-07-24T08:23:13;100030.94;;;21.54;100.00
21357;BME280;10836;53.068;18.234;2023-07-24T08:25:50;100026.19;;;21.74;95.23
21357;BME280;10836;53.068;18.234;2023-07-24T08:28:17;100020.47;;;22.25;92.01
21357;BME280;10836;53.068;18.234;2023-07-24T08:30:44;100020.88;;;22.46;90.03
21357;BME280;10836;53.068;18.234;2023-07-24T08:33:13;100020.81;;;22.43;85.63
21357;BME280;10836;53.068;18.234;2023-07-24T08:35:41;100010.56;;;22.93;82.79
21357;BME280;10836;53.068;18.234;2023-07-24T08:38:08;100002.16;;;22.89;85.84
21357;BME280;10836;53.068;18.234;2023-07-24T08:40:35;100017.13;;;23.07;82.97
21357;BME280;10836;53.068;18.234;2023-07-24T08:43:03;100015.22;;;23.38;84.10
21357;BME280;10836;53.068;18.234;2023-07-24T08:45:31;100017.94;;;23.61;78.50
21357;BME280;10836;53.068;18.234;2023-07-24T08:47:59;100015.97;;;23.35;80.37
21357;BME280;10836;53.068;18.234;2023-07-24T08:50:29;100013.41;;;24.12;77.03
21357;BME280;10836;53.068;18.234;2023-07-24T08:52:56;100001.69;;;24.00;77.04
21357;BME280;10836;53.068;18.234;2023-07-24T08:55:24;100015.03;;;23.83;78.20
21357;BME280;10836;53.068;18.234;2023-07-24T08:57:51;100003.81;;;24.10;75.58
21357;BME280;10836;53.068;18.234;2023-07-24T09:00:18;100005.34;;;24.04;70.51
21357;BME280;10836;53.068;18.234;2023-07-24T09:02:45;99999.09;;;23.80;75.55
21357;BME280;10836;53.068;18.234;2023-07-24T09:05:12;99997.38;;;24.39;73.27
21357;BME280;10836;53.068;18.234;2023-07-24T09:07:42;99995.78;;;25.41;69.25
21357;BME280;10836;53.068;18.234;2023-07-24T09:10:09;99995.06;;;25.58;61.00
21357;BME280;10836;53.068;18.234;2023-07-24T09:12:37;99996.06;;;25.25;59.75
21357;BME280;10836;53.068;18.234;2023-07-24T09:15:08;99990.59;;;25.39;59.54
21357;BME280;10836;53.068;18.234;2023-07-24T09:17:35;99985.63;;;24.64;59.16
21357;BME280;10836;53.068;18.234;2023-07-24T09:20:02;99983.44;;;25.49;59.67
21357;BME280;10836;53.068;18.234;2023-07-24T09:22:30;99974.94;;;25.28;59.23
21357;BME280;10836;53.068;18.234;2023-07-24T09:25:00;99978.28;;;25.55;55.71
21357;BME280;10836;53.068;18.234;2023-07-24T09:27:30;99979.88;;;25.52;55.57
21357;BME280;10836;53.068;18.234;2023-07-24T09:29:59;99970.13;;;26.22;53.10
21357;BME280;10836;53.068;18.234;2023-07-24T09:32:27;99977.91;;;25.63;54.30
21357;BME280;10836;53.068;18.234;2023-07-24T09:34:54;99993.84;;;25.52;54.61
21357;BME280;10836;53.068;18.234;2023-07-24T09:37:26;99977.50;;;25.54;53.93
21357;BME280;10836;53.068;18.234;2023-07-24T09:39:54;99970.06;;;25.94;54.18
21357;BME280;10836;53.068;18.234;2023-07-24T09:42:34;99970.19;;;26.36;52.56
21357;BME280;10836;53.068;18.234;2023-07-24T09:45:06;99958.59;;;26.59;49.43
21357;BME280;10836;53.068;18.234;2023-07-24T09:47:34;99956.91;;;27.33;49.94
21357;BME280;10836;53.068;18.234;2023-07-24T09:50:22;99951.38;;;27.08;48.57
21357;BME280;10836;53.068;18.234;2023-07-24T09:52:50;99957.72;;;27.30;48.59
21357;BME280;10836;53.068;18.234;2023-07-24T09:55:22;99963.28;;;27.51;48.95
21357;BME280;10836;53.068;18.234;2023-07-24T09:57:54;99956.16;;;26.93;47.05
21357;BME280;10836;53.068;18.234;2023-07-24T10:00:21;99954.31;;;25.57;50.39
21357;BME280;10836;53.068;18.234;2023-07-24T10:02:49;99953.53;;;25.60;52.33
21357;BME280;10836;53.068;18.234;2023-07-24T10:05:18;99950.88;;;25.85;50.66
21357;BME280;10836;53.068;18.234;2023-07-24T10:07:46;99943.06;;;25.39;51.96
21357;BME280;10836;53.068;18.234;2023-07-24T10:10:14;99938.28;;;25.40;51.35
21357;BME280;10836;53.068;18.234;2023-07-24T10:12:41;99925.56;;;25.60;51.15
21357;BME280;10836;53.068;18.234;2023-07-24T10:15:09;99929.66;;;25.73;51.30
21357;BME280;10836;53.068;18.234;2023-07-24T10:17:39;99922.53;;;25.94;49.22
21357;BME280;10836;53.068;18.234;2023-07-24T10:20:10;99917.00;;;26.43;47.16
21357;BME280;10836;53.068;18.234;2023-07-24T10:22:41;99910.56;;;26.18;47.96
21357;BME280;10836;53.068;18.234;2023-07-24T10:25:09;99918.59;;;26.73;47.42
21357;BME280;10836;53.068;18.234;2023-07-24T10:27:44;99907.19;;;27.51;45.71
21357;BME280;10836;53.068;18.234;2023-07-24T10:30:16;99896.72;;;27.69;45.58
21357;BME280;10836;53.068;18.234;2023-07-24T10:33:17;99887.50;;;28.31;44.82
21357;BME280;10836;53.068;18.234;2023-07-24T10:35:47;99892.09;;;28.56;42.29
21357;BME280;10836;53.068;18.234;2023-07-24T10:38:16;99898.22;;;27.85;42.96
21357;BME280;10836;53.068;18.234;2023-07-24T10:40:46;99888.91;;;27.18;44.28
21357;BME280;10836;53.068;18.234;2023-07-24T10:43:19;99893.28;;;27.26;45.82
21357;BME280;10836;53.068;18.234;2023-07-24T10:46:03;99875.91;;;27.56;43.46
21357;BME280;10836;53.068;18.234;2023-07-24T10:48:31;99868.50;;;27.94;41.95
21357;BME280;10836;53.068;18.234;2023-07-24T10:51:08;99890.06;;;28.08;42.87
21357;BME280;10836;53.068;18.234;2023-07-24T10:53:46;99878.09;;;27.97;42.59
21357;BME280;10836;53.068;18.234;2023-07-24T10:56:15;99886.50;;;28.56;42.33
21357;BME280;10836;53.068;18.234;2023-07-24T10:58:43;99885.56;;;28.66;41.40
21357;BME280;10836;53.068;18.234;2023-07-24T11:01:10;99876.56;;;27.89;41.68
21357;BME280;10836;53.068;18.234;2023-07-24T11:04:03;99870.66;;;28.31;41.80
21357;BME280;10836;53.068;18.234;2023-07-24T11:12:14;99862.66;;;28.71;40.14
21357;BME280;10836;53.068;18.234;2023-07-24T11:14:52;99855.91;;;28.61;40.49
21357;BME280;10836;53.068;18.234;2023-07-24T11:17:51;99858.47;;;29.24;40.02
21357;BME280;10836;53.068;18.234;2023-07-24T11:20:19;99861.06;;;29.45;39.05
21357;BME280;10836;53.068;18.234;2023-07-24T11:25:46;99849.38;;;28.75;40.46
21357;BME280;10836;53.068;18.234;2023-07-24T11:28:40;99865.06;;;28.69;39.77
21357;BME280;10836;53.068;18.234;2023-07-24T11:31:18;99865.47;;;28.71;39.81
21357;BME280;10836;53.068;18.234;2023-07-24T11:33:49;99857.81;;;28.30;41.06
21357;BME280;10836;53.068;18.234;2023-07-24T11:36:17;99856.66;;;28.21;40.84
21357;BME280;10836;53.068;18.234;2023-07-24T11:38:45;99860.00;;;28.05;40.95
21357;BME280;10836;53.068;18.234;2023-07-24T11:41:37;99858.69;;;27.58;41.65
21357;BME280;10836;53.068;18.234;2023-07-24T11:44:04;99858.75;;;28.13;41.12
21357;BME280;10836;53.068;18.234;2023-07-24T11:46:31;99858.53;;;28.41;41.92
21357;BME280;10836;53.068;18.234;2023-07-24T11:52:10;99861.09;;;28.18;40.74
21357;BME280;10836;53.068;18.234;2023-07-24T11:57:59;99840.13;;;28.37;39.87
21357;BME280;10836;53.068;18.234;2023-07-24T12:00:48;99850.44;;;28.51;39.11
21357;BME280;10836;53.068;18.234;2023-07-24T12:03:19;99832.44;;;28.86;39.27
21357;BME280;10836;53.068;18.234;2023-07-24T12:05:48;99830.75;;;29.56;39.06
21357;BME280;10836;53.068;18.234;2023-07-24T12:10:59;99824.78;;;29.51;37.82
21357;BME280;10836;53.068;18.234;2023-07-24T12:13:26;99815.66;;;29.97;37.31
21357;BME280;10836;53.068;18.234;2023-07-24T12:15:53;99809.59;;;30.25;36.12
21357;BME280;10836;53.068;18.234;2023-07-24T12:24:28;99813.53;;;29.20;36.82
21357;BME280;10836;53.068;18.234;2023-07-24T12:26:55;99803.13;;;29.17;37.24
21357;BME280;10836;53.068;18.234;2023-07-24T12:32:14;99801.50;;;30.27;35.77
21357;BME280;10836;53.068;18.234;2023-07-24T12:34:41;99800.81;;;29.93;35.33
21357;BME280;10836;53.068;18.234;2023-07-24T12:37:08;99797.81;;;30.07;35.05
21357;BME280;10836;53.068;18.234;2023-07-24T12:39:35;99797.41;;;29.82;35.42
21357;BME280;10836;53.068;18.234;2023-07-24T12:42:26;99782.50;;;29.85;36.06
21357;BME280;10836;53.068;18.234;2023-07-24T12:48:04;99770.25;;;28.42;37.46
21357;BME280;10836;53.068;18.234;2023-07-24T12:50:31;99774.97;;;28.53;37.76
21357;BME280;10836;53.068;18.234;2023-07-24T12:52:58;99786.19;;;28.11;38.15
21357;BME280;10836;53.068;18.234;2023-07-24T12:58:11;99772.28;;;27.94;38.92
21357;BME280;10836;53.068;18.234;2023-07-24T13:00:38;99765.16;;;27.86;39.02
21357;BME280;10836;53.068;18.234;2023-07-24T13:03:05;99769.06;;;27.99;39.25
21357;BME280;10836;53.068;18.234;2023-07-24T13:05:33;99762.56;;;28.09;38.78
21357;BME280;10836;53.068;18.234;2023-07-24T13:08:38;99752.56;;;28.49;39.32
21357;BME280;10836;53.068;18.234;2023-07-24T13:11:05;99744.00;;;28.94;38.15
21357;BME280;10836;53.068;18.234;2023-07-24T13:16:32;99733.75;;;29.41;35.93
21357;BME280;10836;53.068;18.234;2023-07-24T13:18:59;99722.75;;;29.20;36.78
21357;BME280;10836;53.068;18.234;2023-07-24T13:24:12;99724.59;;;29.60;36.31
21357;BME280;10836;53.068;18.234;2023-07-24T13:26:39;99726.53;;;29.63;37.53
21357;BME280;10836;53.068;18.234;2023-07-24T13:29:07;99710.78;;;30.16;36.38